Latest Weather Observations for Alva Beach

IDQ60801

Issued at 9:31 pm EST Saturday 4 July 2015 (issued every 30 minutes, with the page automatically refreshed every 10 minutes)

About weather observations | Map of weather stations | Latest weather observations for QLD | Other Formats
Station Details ID: 033295 Name: ALVA BEACH Lat: -19.46 Lon: 147.48 Height: 7.5 m
Data from the previous 72 hours. | See also: Recent months at Alva Beach
Date/Time
EST
Temp
°C
App
Temp
°C
Dew
Point
Rel
Hum
%
Delta-T
°C
Wind Press
QNH
hPa
Press
MSL
hPa
Rain
since 9 am
mm
Dir
 
Spd
km/h
Gust
km/h
Spd
kts
Gust
kts
04/09:30pm 20.9 19.7 16.1 74 2.9 ESE 17 28 9 15 1018.8 1018.8 0.0
04/09:00pm 21.0 19.6 15.5 71 3.3 ESE 17 30 9 16 1018.8 1018.8 0.0
04/08:30pm 21.3 18.3 14.9 67 3.8 E 24 32 13 17 1018.5 1018.5 0.0
04/08:00pm 21.5 18.4 14.6 65 4.0 E 24 33 13 18 1018.1 1018.1 0.0
04/07:30pm 21.5 18.7 15.3 68 3.7 E 24 33 13 18 1017.9 1017.9 0.0
04/07:00pm 21.4 19.4 15.5 69 3.5 E 20 32 11 17 1017.6 1017.6 0.0
04/06:30pm 21.7 19.1 14.8 65 4.1 E 22 30 12 16 1017.3 1017.3 0.0
04/06:00pm 21.6 19.2 15.4 68 3.7 E 22 32 12 17 1017.1 1017.1 0.0
04/05:30pm 21.6 19.1 15.2 67 3.8 E 22 28 12 15 1016.9 1016.9 0.0
04/05:00pm 21.7 18.9 14.4 63 4.3 ESE 22 32 12 17 1016.7 1016.7 0.0
04/04:30pm 22.7 20.2 14.0 58 5.1 ESE 20 30 11 16 1016.6 1016.6 0.0
04/04:00pm 23.3 22.1 14.0 56 5.4 ESE 13 22 7 12 1016.6 1016.6 0.0
04/03:30pm 23.5 21.4 14.8 58 5.2 ESE 19 28 10 15 1016.7 1016.7 0.0
04/03:00pm 23.7 22.8 14.9 57 5.2 ESE 13 22 7 12 1016.9 1016.9 0.0
04/02:30pm 23.9 22.5 14.6 56 5.5 ESE 15 24 8 13 1017.1 1017.1 0.0
04/02:00pm 24.3 23.5 15.0 56 5.6 ESE 13 24 7 13 1017.3 1017.3 0.0
04/01:30pm 23.1 22.1 13.3 54 5.7 ESE 11 20 6 11 1017.5 1017.5 0.0
04/01:00pm 23.1 21.8 13.8 55 5.4 ESE 13 22 7 12 1018.2 1018.2 0.0
04/12:30pm 22.5 20.8 12.4 52 5.7 ESE 13 24 7 13 1018.8 1018.8 0.0
04/12:00pm 22.2 20.1 12.5 54 5.5 ESE 15 20 8 11 1019.2 1019.2 0.0
04/11:30am 22.4 20.0 12.6 54 5.6 ESE 17 24 9 13 1019.7 1019.7 0.0
04/11:00am 22.3 20.6 12.5 53 5.6 SE 13 20 7 11 1020.0 1020.0 0.0
04/10:30am 21.1 19.1 10.3 50 5.9 SE 11 22 6 12 1020.0 1020.0 0.0
04/10:00am 19.9 17.7 9.5 51 5.5 S 11 19 6 10 1020.2 1020.2 0.0
04/09:30am 19.0 17.2 9.5 54 5.0 SSW 9 19 5 10 1020.1 1020.1 0.0
04/09:00am 17.8 15.7 9.9 60 4.2 SSW 11 19 6 10 1020.0 1020.0 0.0
04/08:30am 15.9 13.4 9.8 67 3.2 SSW 13 20 7 11 1019.7 1019.7 0.0
04/08:00am 14.4 12.3 9.6 73 2.5 SSW 11 19 6 10 1019.5 1019.5 0.0
04/07:30am 12.8 11.0 9.6 81 1.6 SSW 9 13 5 7 1019.2 1019.2 0.0
04/07:00am 11.7 9.9 9.4 86 1.2 SW 9 13 5 7 1018.9 1018.9 0.0
04/06:30am 11.8 9.9 9.2 84 1.3 SSW 9 13 5 7 1018.7 1018.7 0.0
04/06:00am 12.2 10.3 9.2 82 1.5 SSW 9 15 5 8 1018.4 1018.4 0.0
04/05:30am 13.4 11.4 10.0 80 1.8 SSW 11 15 6 8 1018.2 1018.2 0.0
04/05:00am 13.3 11.3 10.3 82 1.6 SSW 11 17 6 9 1018.2 1018.2 0.0
04/04:30am 13.4 11.5 10.4 82 1.6 SSW 11 15 6 8 1018.3 1018.3 0.0
04/04:00am 13.9 12.4 10.7 81 1.7 SSW 9 13 5 7 1018.2 1018.2 0.0
04/03:30am 15.2 13.7 10.6 74 2.4 SSW 9 15 5 8 1018.3 1018.3 0.0
04/03:00am 18.4 15.1 11.5 64 3.8 SE 20 32 11 17 1018.2 1018.2 0.0
04/02:30am 18.7 15.6 11.5 63 3.9 ESE 19 32 10 17 1018.2 1018.2 0.0
04/02:00am 18.8 16.1 13.4 71 3.1 ESE 20 33 11 18 1018.4 1018.4 0.0
04/01:30am 18.9 15.9 12.6 67 3.5 ESE 20 35 11 19 1018.9 1018.9 0.0
04/01:00am 19.0 15.9 12.3 65 3.7 ESE 20 32 11 17 1019.2 1019.2 0.0
04/12:30am 19.3 16.5 13.2 68 3.5 ESE 20 33 11 18 1019.4 1019.4 0.0
04/12:00am 19.5 16.4 13.4 68 3.5 ESE 22 33 12 18 1019.5 1019.5 0.0
 
Date/Time
EST
Temp
°C
App
Temp
°C
Dew
Point
Rel
Hum
%
Delta-T
°C
Wind Press
QNH
hPa
Press
MSL
hPa
Rain
since 9 am
mm
Dir
 
Spd
km/h
Gust
km/h
Spd
kts
Gust
kts
03/11:30pm 19.7 16.2 13.4 67 3.6 ESE 24 33 13 18 1019.8 1019.8 0.0
03/11:00pm 20.0 17.1 13.9 68 3.5 E 22 33 12 18 1019.9 1019.9 0.0
03/10:30pm 19.8 16.7 14.6 72 3.0 ESE 24 32 13 17 1019.9 1019.9 0.0
03/10:00pm 19.9 16.6 14.0 69 3.4 E 24 33 13 18 1019.9 1019.9 0.0
03/09:30pm 19.9 15.8 13.8 68 3.5 E 28 35 15 19 1019.6 1019.6 0.0
03/09:00pm 20.0 16.5 14.4 70 3.2 E 26 35 14 19 1019.3 1019.3 0.0
03/08:30pm 19.7 15.8 13.2 66 3.7 E 26 37 14 20 1019.2 1019.2 0.0
03/08:00pm 19.5 15.4 12.7 65 3.8 E 26 37 14 20 1019.0 1019.0 0.0
03/07:30pm 19.6 15.9 12.8 65 3.8 E 24 35 13 19 1018.7 1018.7 0.0
03/07:00pm 19.6 15.6 11.9 61 4.3 E 24 33 13 18 1018.4 1018.4 0.0
03/06:30pm 19.8 15.6 11.0 57 4.8 E 24 35 13 19 1018.0 1018.0 0.0
03/06:00pm 20.0 15.7 10.7 55 5.0 E 24 33 13 18 1017.7 1017.7 0.0
03/05:30pm 20.3 16.5 12.3 60 4.5 E 24 33 13 18 1017.4 1017.4 0.0
03/05:00pm 20.5 17.6 13.0 62 4.3 E 20 30 11 16 1017.1 1017.1 0.0
03/04:30pm 21.0 18.0 12.7 59 4.7 E 20 28 11 15 1016.9 1016.9 0.0
03/04:00pm 21.4 18.6 13.3 60 4.6 E 20 28 11 15 1016.8 1016.8 0.0
03/03:30pm 21.8 18.5 11.5 52 5.7 E 20 28 11 15 1016.7 1016.7 0.0
03/03:00pm 22.1 19.1 12.1 53 5.6 E 19 24 10 13 1016.6 1016.6 0.0
03/02:30pm 22.3 19.4 11.1 49 6.2 E 17 24 9 13 1016.9 1016.9 0.0
03/02:00pm 22.2 19.4 11.3 50 6.1 E 17 20 9 11 1017.1 1017.1 0.0
03/01:30pm 22.2 18.8 10.7 48 6.3 E 19 26 10 14 1017.3 1017.3 0.0
03/01:00pm 22.1 19.4 11.8 52 5.8 E 17 22 9 12 1017.8 1017.8 0.0
03/12:30pm 21.8 19.5 11.8 53 5.6 E 15 20 8 11 1018.3 1018.3 0.0
03/12:00pm 22.5 20.7 12.2 52 5.8 E 13 20 7 11 1018.9 1018.9 0.0
03/11:30am 22.3 20.5 12.0 52 5.8 E 13 19 7 10 1019.3 1019.3 0.0
03/11:00am 22.0 20.2 12.0 53 5.6 ESE 13 19 7 10 1019.6 1019.6 0.0
03/10:30am 21.8 20.0 12.1 54 5.5 SE 13 20 7 11 1019.7 1019.7 0.0
03/10:00am 21.3 18.9 12.7 58 4.9 SE 17 26 9 14 1019.9 1019.9 0.0
03/09:30am 21.5 20.5 13.4 60 4.7 SSE 11 22 6 12 1019.8 1019.8 0.0
03/09:00am 20.4 20.2 14.7 70 3.3 S 9 17 5 9 1019.6 1019.6 0.0
03/08:30am 18.4 18.0 14.1 76 2.5 S 9 15 5 8 1019.3 1019.3 0.0
03/08:00am 16.9 16.4 13.8 82 1.8 S 9 13 5 7 1018.9 1018.9 0.0
03/07:30am 15.3 15.0 14.3 94 0.6 S 9 15 5 8 1018.7 1018.7 0.0
03/07:00am 14.6 14.0 13.6 94 0.6 S 9 13 5 7 1018.3 1018.3 0.0
03/06:30am 14.5 13.5 13.5 94 0.6 SSW 11 15 6 8 1018.1 1018.1 0.0
03/06:00am 14.7 13.8 13.6 93 0.6 SSW 11 15 6 8 1017.8 1017.8 0.0
03/05:30am 14.8 14.3 13.8 94 0.6 S 9 15 5 8 1017.6 1017.6 0.0
03/05:00am 14.8 14.3 13.8 94 0.6 SSW 9 13 5 7 1017.4 1017.4 0.0
03/04:30am 15.0 14.6 14.0 94 0.6 SSW 9 13 5 7 1017.2 1017.2 0.0
03/04:00am 15.0 14.6 14.0 94 0.6 SSW 9 11 5 6 1017.3 1017.3 0.0
03/03:30am 15.3 15.0 14.5 95 0.5 SSW 9 11 5 6 1017.3 1017.3 0.0
03/03:00am 15.6 15.4 14.8 95 0.5 SSW 9 11 5 6 1017.6 1017.6 0.0
03/02:30am 15.7 16.0 14.9 95 0.5 SSW 7 9 4 5 1017.6 1017.6 0.0
03/02:00am 16.0 16.4 15.2 95 0.5 SW 7 11 4 6 1017.8 1017.8 0.0
03/01:30am 16.3 16.7 15.3 94 0.6 SSW 7 11 4 6 1018.2 1018.2 0.0
03/01:00am 16.7 17.3 15.7 94 0.6 SSW 7 11 4 6 1018.5 1018.5 0.0
03/12:30am 16.8 17.2 15.3 91 0.9 SSW 7 9 4 5 1018.7 1018.7 0.0
03/12:00am 17.5 17.6 14.4 82 1.8 SSW 7 9 4 5 1018.8 1018.8 0.0
 
Date/Time
EST
Temp
°C
App
Temp
°C
Dew
Point
Rel
Hum
%
Delta-T
°C
Wind Press
QNH
hPa
Press
MSL
hPa
Rain
since 9 am
mm
Dir
 
Spd
km/h
Gust
km/h
Spd
kts
Gust
kts
02/11:30pm 19.6 19.7 14.4 72 3.0 SE 7 19 4 10 1019.1 1019.1 0.0
02/11:00pm 21.0 20.5 15.8 72 3.1 E 13 20 7 11 1019.3 1019.3 0.0
02/10:30pm 21.5 20.5 15.6 69 3.5 E 15 20 8 11 1019.6 1019.6 0.0
02/10:00pm 21.7 21.4 16.4 72 3.2 E 13 20 7 11 1019.7 1019.7 0.0
02/09:30pm 21.7 21.2 16.0 70 3.4 E 13 20 7 11 1019.6 1019.6 0.0
02/09:00pm 21.7 20.9 16.0 70 3.4 E 15 22 8 12 1019.6 1019.6 0.0
02/08:30pm 21.6 21.4 16.6 73 3.0 E 13 17 7 9 1019.5 1019.5 0.0
02/08:00pm 21.7 20.9 16.0 70 3.4 E 15 20 8 11 1019.3 1019.3 0.0
02/07:30pm 21.7 20.3 16.6 73 3.1 ENE 19 24 10 13 1019.0 1019.0 0.0
02/07:00pm 21.6 19.8 16.1 71 3.3 ENE 20 26 11 14 1018.7 1018.7 0.0
02/06:30pm 21.6 19.5 16.1 71 3.3 ENE 22 26 12 14 1018.4 1018.4 0.0
02/06:00pm 21.6 20.1 16.8 74 2.9 ENE 20 24 11 13 1018.1 1018.1 0.0
02/05:30pm 21.7 20.4 16.9 74 2.9 ENE 19 22 10 12 1017.9 1017.9 0.0
02/05:00pm 22.0 20.2 16.9 73 3.1 ENE 22 26 12 14 1017.8 1017.8 0.0
02/04:30pm 22.4 21.0 16.9 71 3.4 ENE 20 26 11 14 1017.6 1017.6 0.0
02/04:00pm 22.8 21.2 16.6 68 3.8 ENE 20 24 11 13 1017.7 1017.7 0.0
02/03:30pm 22.8 21.4 16.6 68 3.8 ENE 19 24 10 13 1017.6 1017.6 0.0
02/03:00pm 22.8 21.2 16.4 67 3.9 ENE 20 26 11 14 1017.7 1017.7 0.0
02/02:30pm 23.1 21.6 16.4 66 4.1 ENE 19 22 10 12 1018.0 1018.0 0.0
02/02:00pm 23.1 21.3 15.9 64 4.3 ENE 20 24 11 13 1018.3 1018.3 0.0
02/01:30pm 23.0 21.7 15.8 64 4.3 ENE 17 20 9 11 1018.6 1018.6 0.0
02/01:00pm 23.6 23.4 15.6 61 4.8 E 11 15 6 8 1019.0 1019.0 0.0
02/12:30pm 23.1 22.4 14.4 58 5.1 E 11 17 6 9 1019.5 1019.5 0.0
02/12:00pm 23.7 23.1 14.7 57 5.3 ESE 11 19 6 10 1020.0 1020.0 0.0
02/11:30am 23.5 22.6 14.8 58 5.2 SE 13 24 7 13 1020.6 1020.6 0.0
02/11:00am 23.8 23.0 15.0 57 5.2 SE 13 22 7 12 1021.0 1021.0 0.0
02/10:30am 23.3 21.8 14.3 57 5.3 SE 15 24 8 13 1021.5 1021.5 0.0
02/10:00am 23.4 23.3 14.9 59 5.0 S 9 17 5 9 1021.6 1021.6 0.0
02/09:30am 22.0 21.8 14.6 63 4.4 S 9 15 5 8 1021.7 1021.7 0.0
02/09:00am 20.7 20.4 14.4 67 3.7 SSW 9 15 5 8 1021.7 1021.7 0.0
02/08:30am 19.3 18.5 14.1 72 3.0 SSW 11 17 6 9 1021.3 1021.3 0.0
02/08:00am 17.4 17.3 13.9 80 2.0 SW 7 11 4 6 1021.0 1021.0 0.0
02/07:30am 15.8 15.4 14.0 89 1.0 SSW 9 13 5 7 1020.7 1020.7 0.0
02/07:00am 15.0 14.5 13.9 93 0.6 SW 9 13 5 7 1020.3 1020.3 0.0
02/06:30am 15.2 15.2 14.1 93 0.6 SSW 7 11 4 6 1020.1 1020.1 0.0
02/06:00am 15.6 15.3 14.5 93 0.6 SSW 9 13 5 7 1019.8 1019.8 0.0
02/05:30am 15.6 15.3 14.5 93 0.6 SSW 9 15 5 8 1019.5 1019.5 0.0
02/05:00am 15.6 15.4 14.6 94 0.6 SSW 9 11 5 6 1019.3 1019.3 0.0
02/04:30am 15.9 16.2 14.9 94 0.6 SSW 7 11 4 6 1019.3 1019.3 0.0
02/04:00am 16.0 15.9 15.0 94 0.6 SSW 9 11 5 6 1019.2 1019.2 0.0
02/03:30am 16.2 16.5 15.1 93 0.6 SW 7 9 4 5 1019.3 1019.3 0.0
02/03:00am 16.3 16.2 15.0 92 0.7 SW 9 11 5 6 1019.5 1019.5 0.0
02/02:30am 16.6 17.1 15.5 93 0.6 SSW 7 9 4 5 1019.7 1019.7 0.0
02/02:00am 16.9 17.6 15.6 92 0.8 SW 6 9 3 5 1020.0 1020.0 0.0
02/01:30am 17.2 17.9 15.5 90 1.0 WSW 6 7 3 4 1020.4 1020.4 0.0
02/01:00am 18.9 20.2 17.2 90 1.0 S 6 13 3 7 1020.6 1020.6 0.0
02/12:30am 20.2 21.0 15.8 76 2.6 S 6 11 3 6 1020.8 1020.8 0.0
02/12:00am 21.1 21.1 17.3 79 2.3 ESE 13 19 7 10 1020.9 1020.9 0.0
 
Date/Time
EST
Temp
°C
App
Temp
°C
Dew
Point
Rel
Hum
%
Delta-T
°C
Wind Press
QNH
hPa
Press
MSL
hPa
Rain
since 9 am
mm
Dir
 
Spd
km/h
Gust
km/h
Spd
kts
Gust
kts
01/11:30pm 21.3 20.5 17.1 77 2.6 ESE 17 26 9 14 1021.0 1021.0 0.0
01/11:00pm 21.5 20.1 17.1 76 2.7 ESE 20 30 11 16 1021.2 1021.2 0.0
01/10:30pm 21.8 20.6 17.0 74 2.9 ESE 19 26 10 14 1021.3 1021.3 0.0
01/10:00pm 22.0 20.7 17.2 74 2.9 ESE 20 28 11 15 1021.3 1021.3 0.0

Other Formats:

Comma delimited format used in spreadsheet applications
http://www.bom.gov.au/fwo/IDQ60801/IDQ60801.95296.axf

JavaScript Object Notation format (JSON) in row-major order
http://www.bom.gov.au/fwo/IDQ60801/IDQ60801.95296.json